createdAt,value
2019-02-17T00:00:58.891Z,19.70
2019-02-17T00:06:09.814Z,20.03
2019-02-17T00:11:13.019Z,26.70
2019-02-17T00:16:16.175Z,24.40
2019-02-17T00:21:19.609Z,20.73
2019-02-17T00:26:22.868Z,20.57
2019-02-17T00:31:26.322Z,18.90
2019-02-17T00:36:29.678Z,19.80
2019-02-17T00:41:33.158Z,19.83
2019-02-17T00:46:36.544Z,20.70
2019-02-17T00:51:39.979Z,20.10
2019-02-17T00:56:46.542Z,19.40
2019-02-17T01:01:49.930Z,21.30
2019-02-17T01:06:53.168Z,20.40
2019-02-17T01:11:59.242Z,19.20
2019-02-17T01:17:02.686Z,20.13
2019-02-17T01:22:06.862Z,20.77
2019-02-17T01:27:09.994Z,20.90
2019-02-17T01:32:13.399Z,21.20
2019-02-17T01:37:16.947Z,20.43
2019-02-17T01:42:23.179Z,20.63
2019-02-17T01:47:32.374Z,20.77
2019-02-17T01:52:38.861Z,21.23
2019-02-17T01:57:59.682Z,20.33
2019-02-17T02:03:03.395Z,20.20
2019-02-17T02:08:09.740Z,19.03
2019-02-17T02:13:16.406Z,21.60
2019-02-17T02:18:19.805Z,20.80
2019-02-17T02:23:25.137Z,22.17
2019-02-17T02:28:28.585Z,20.90
2019-02-17T02:33:41.416Z,18.80
2019-02-17T02:38:44.900Z,21.67
2019-02-17T02:43:48.173Z,22.30
2019-02-17T02:48:51.559Z,23.63
2019-02-17T02:53:54.793Z,23.63
2019-02-17T02:58:59.622Z,22.17
2019-02-17T03:04:03.125Z,22.90
2019-02-17T03:09:06.424Z,22.03
2019-02-17T03:14:09.641Z,23.00
2019-02-17T03:19:16.043Z,21.47
2019-02-17T03:24:19.261Z,21.17
2019-02-17T03:29:25.317Z,21.77
2019-02-17T03:34:28.643Z,22.70
2019-02-17T03:39:31.948Z,23.40
2019-02-17T03:44:35.411Z,22.70
2019-02-17T03:49:38.758Z,23.10
2019-02-17T03:54:41.908Z,22.43
2019-02-17T03:59:48.566Z,23.20
2019-02-17T04:04:51.874Z,23.90
2019-02-17T04:09:55.443Z,22.87
2019-02-17T04:14:58.885Z,23.77
2019-02-17T04:20:04.215Z,22.50
2019-02-17T04:25:08.343Z,24.50
2019-02-17T04:30:11.717Z,27.13
2019-02-17T04:35:15.113Z,27.73
2019-02-17T04:40:21.499Z,25.00
2019-02-17T04:45:24.918Z,40.63
2019-02-17T04:50:30.896Z,26.63
2019-02-17T04:55:34.194Z,25.50
2019-02-17T05:00:40.535Z,24.47
2019-02-17T05:05:43.020Z,26.97
2019-02-17T05:10:49.426Z,25.13
2019-02-17T05:15:52.667Z,26.30
2019-02-17T05:20:56.070Z,26.07
2019-02-17T05:25:59.577Z,26.70
2019-02-17T05:31:02.750Z,29.37
2019-02-17T05:36:06.054Z,28.43
2019-02-17T05:41:10.949Z,27.27
2019-02-17T05:46:14.444Z,28.00
2019-02-17T05:51:20.746Z,26.87
2019-02-17T05:56:24.198Z,25.90
2019-02-17T06:01:30.312Z,27.17
2019-02-17T06:06:33.636Z,26.67
2019-02-17T06:11:36.971Z,30.93
2019-02-17T06:16:40.184Z,28.03
2019-02-17T06:21:46.420Z,32.13
2019-02-17T06:26:50.012Z,27.13
2019-02-17T06:31:53.494Z,28.70
2019-02-17T06:37:02.923Z,27.43
2019-02-17T06:42:15.191Z,27.17
2019-02-17T06:47:22.508Z,27.63
2019-02-17T06:52:28.948Z,28.47
2019-02-17T06:57:38.753Z,28.07
2019-02-17T07:02:42.269Z,27.83
2019-02-17T07:07:45.787Z,27.37
2019-02-17T07:12:49.303Z,27.80
2019-02-17T07:17:53.942Z,27.77
2019-02-17T07:22:57.661Z,28.07
2019-02-17T07:28:01.339Z,28.70
2019-02-17T07:33:04.591Z,27.50
2019-02-17T07:38:12.295Z,27.70
2019-02-17T07:43:15.693Z,28.13
2019-02-17T07:48:19.059Z,28.60
2019-02-17T07:53:25.127Z,28.90
2019-02-17T07:58:29.975Z,28.20
2019-02-17T08:03:42.447Z,29.07
2019-02-17T08:08:45.816Z,30.37
2019-02-17T08:13:49.347Z,30.03
2019-02-17T08:18:52.748Z,29.83
2019-02-17T08:23:59.199Z,29.23
2019-02-17T08:29:02.819Z,29.93
2019-02-17T08:34:06.307Z,29.50
2019-02-17T08:39:09.848Z,30.23
2019-02-17T08:44:13.418Z,30.47
2019-02-17T08:49:16.700Z,28.73
2019-02-17T08:54:19.912Z,29.00
2019-02-17T08:59:23.163Z,28.90
2019-02-17T09:04:26.680Z,27.63
2019-02-17T09:09:30.093Z,26.60
2019-02-17T09:14:33.595Z,26.77
2019-02-17T09:19:40.124Z,26.80
2019-02-17T09:24:46.765Z,28.43
2019-02-17T09:29:50.874Z,26.50
2019-02-17T09:34:54.389Z,26.07
2019-02-17T09:39:57.768Z,27.53
2019-02-17T09:45:04.362Z,24.23
2019-02-17T09:50:08.972Z,26.87
2019-02-17T09:55:12.417Z,25.93
2019-02-17T10:00:15.999Z,25.40
2019-02-17T10:05:19.307Z,25.17
2019-02-17T10:10:28.764Z,25.80
2019-02-17T10:15:32.104Z,24.40
2019-02-17T10:20:37.791Z,25.83
2019-02-17T10:25:41.102Z,24.80
2019-02-17T10:30:44.431Z,24.57
2019-02-17T10:35:53.670Z,24.97
2019-02-17T10:41:02.784Z,26.23
2019-02-17T10:46:06.290Z,27.70
2019-02-17T10:51:09.599Z,28.67
2019-02-17T10:56:15.211Z,27.20
2019-02-17T11:01:18.544Z,29.27
2019-02-17T11:06:22.909Z,28.50
2019-02-17T11:11:26.131Z,29.60
2019-02-17T11:16:29.645Z,30.40
2019-02-17T11:21:33.065Z,27.63
2019-02-17T11:26:36.404Z,26.93
2019-02-17T11:31:39.540Z,28.80
2019-02-17T11:36:42.740Z,27.37
2019-02-17T11:41:46.198Z,29.83
2019-02-17T11:46:55.509Z,25.20
2019-02-17T11:51:58.934Z,25.00
2019-02-17T11:57:02.682Z,23.13
2019-02-17T12:02:09.091Z,23.80
2019-02-17T12:07:12.686Z,22.87
2019-02-17T12:12:19.117Z,21.73
2019-02-17T12:17:22.568Z,22.37
2019-02-17T12:22:30.599Z,21.70
2019-02-17T12:28:05.653Z,21.67
2019-02-17T12:33:18.275Z,21.43
2019-02-17T12:38:14.051Z,21.23
2019-02-17T12:43:17.297Z,22.40
2019-02-17T12:48:20.584Z,22.23
2019-02-17T12:53:24.004Z,20.40
2019-02-17T12:58:34.527Z,21.03
2019-02-17T13:03:37.769Z,21.10
2019-02-17T13:08:45.616Z,23.50
2019-02-17T13:13:49.174Z,21.40
2019-02-17T13:19:00.043Z,20.57
2019-02-17T13:24:06.401Z,21.17
2019-02-17T13:29:11.487Z,20.30
2019-02-17T13:34:15.005Z,19.30
2019-02-17T13:39:18.523Z,18.97
2019-02-17T13:44:26.536Z,19.60
2019-02-17T13:49:29.749Z,18.70
2019-02-17T13:54:33.165Z,17.80
2019-02-17T13:59:36.530Z,18.20
2019-02-17T14:04:43.268Z,17.77
2019-02-17T14:09:46.626Z,16.63
2019-02-17T14:14:50.091Z,17.13
2019-02-17T14:19:56.818Z,15.67
2019-02-17T14:25:00.398Z,17.07
2019-02-17T14:30:05.241Z,17.40
2019-02-17T14:35:17.824Z,17.33
2019-02-17T14:40:21.239Z,17.13
2019-02-17T14:45:27.403Z,16.90
2019-02-17T14:50:34.095Z,16.80
2019-02-17T14:55:37.417Z,17.20
2019-02-17T15:00:41.108Z,16.93
2019-02-17T15:05:44.442Z,18.03
2019-02-17T15:10:48.034Z,16.33
2019-02-17T15:15:54.429Z,16.00
2019-02-17T15:21:00.881Z,15.47
2019-02-17T15:26:04.431Z,14.97
2019-02-17T15:31:07.829Z,15.23
2019-02-17T15:36:11.430Z,16.40
2019-02-17T15:41:14.873Z,15.90
2019-02-17T15:46:18.177Z,15.40
2019-02-17T15:51:21.491Z,15.00
2019-02-17T15:56:28.149Z,16.33
2019-02-17T16:01:31.562Z,16.63
2019-02-17T16:06:34.437Z,17.13
2019-02-17T16:11:37.308Z,14.40
2019-02-17T16:16:40.140Z,16.93
2019-02-17T16:21:42.969Z,16.50
2019-02-17T16:26:48.579Z,19.77
2019-02-17T16:31:52.077Z,19.90
2019-02-17T16:37:00.028Z,22.73
2019-02-17T16:42:02.604Z,20.37
2019-02-17T16:47:05.474Z,20.40
2019-02-17T16:52:08.507Z,21.23
2019-02-17T16:57:11.869Z,21.17
2019-02-17T17:02:15.246Z,20.80
2019-02-17T17:07:18.793Z,20.90
2019-02-17T17:12:22.415Z,20.23
2019-02-17T17:17:25.930Z,21.73
2019-02-17T17:22:28.808Z,21.10
2019-02-17T17:27:32.284Z,28.80
2019-02-17T17:32:35.142Z,22.10
2019-02-17T17:37:44.149Z,23.50
2019-02-17T17:42:46.938Z,22.53
2019-02-17T17:47:57.815Z,22.67
2019-02-17T17:53:01.390Z,25.00
2019-02-17T17:58:04.803Z,22.43
2019-02-17T18:03:08.152Z,21.70
2019-02-17T18:08:11.492Z,21.50
2019-02-17T18:13:14.695Z,21.50
2019-02-17T18:18:18.145Z,24.73
2019-02-17T18:23:24.186Z,22.20
2019-02-17T18:28:27.481Z,21.20
2019-02-17T18:33:30.804Z,21.10
2019-02-17T18:38:34.095Z,29.93
2019-02-17T18:43:37.566Z,22.97
2019-02-17T18:48:40.777Z,21.10
2019-02-17T18:53:44.018Z,23.90
2019-02-17T18:58:54.458Z,23.03
2019-02-17T19:04:04.118Z,24.30
2019-02-17T19:09:07.843Z,24.53
2019-02-17T19:14:11.456Z,24.70
2019-02-17T19:19:14.700Z,25.33
2019-02-17T19:24:17.871Z,24.10
2019-02-17T19:29:21.388Z,23.40
2019-02-17T19:34:24.945Z,23.50
2019-02-17T19:39:28.320Z,24.10
2019-02-17T19:44:31.679Z,24.50
2019-02-17T19:49:34.904Z,26.70
2019-02-17T19:54:41.627Z,25.13
2019-02-17T19:59:45.012Z,24.80
2019-02-17T20:05:04.942Z,24.80
2019-02-17T20:10:08.202Z,24.27
2019-02-17T20:15:11.705Z,23.50
2019-02-17T20:20:20.241Z,22.30
2019-02-17T20:25:29.947Z,24.83
2019-02-17T20:30:39.618Z,22.43
2019-02-17T20:35:49.176Z,24.30
2019-02-17T20:40:52.550Z,24.10
2019-02-17T20:45:55.848Z,23.57
2019-02-17T20:51:00.753Z,24.30
2019-02-17T20:56:04.403Z,27.13
2019-02-17T21:01:16.271Z,26.70
2019-02-17T21:06:15.922Z,26.90
2019-02-17T21:11:19.207Z,26.23
2019-02-17T21:16:22.726Z,24.13
2019-02-17T21:21:32.176Z,27.07
2019-02-17T21:26:35.694Z,25.90
2019-02-17T21:31:42.118Z,26.90
2019-02-17T21:36:45.693Z,27.63
2019-02-17T21:41:50.010Z,23.83
2019-02-17T21:46:53.650Z,25.40
2019-02-17T21:51:57.005Z,22.63
2019-02-17T21:57:01.792Z,22.33
2019-02-17T22:02:05.354Z,23.73
2019-02-17T22:07:13.196Z,21.47
2019-02-17T22:12:16.637Z,22.03
2019-02-17T22:17:19.658Z,22.77
2019-02-17T22:22:23.064Z,22.50
2019-02-17T22:27:26.464Z,23.37
2019-02-17T22:32:29.997Z,24.93
2019-02-17T22:37:39.216Z,23.50
2019-02-17T22:42:38.816Z,26.13
2019-02-17T22:47:43.568Z,22.47
2019-02-17T22:52:46.947Z,22.03
2019-02-17T22:57:50.438Z,21.93
2019-02-17T23:02:53.952Z,22.93
2019-02-17T23:07:57.260Z,23.30
2019-02-17T23:13:02.414Z,20.40
2019-02-17T23:18:26.614Z,21.47
2019-02-17T23:23:31.052Z,22.53
2019-02-17T23:28:34.288Z,21.50
2019-02-17T23:33:37.700Z,21.40
2019-02-17T23:38:41.014Z,23.20
2019-02-17T23:43:47.126Z,21.37
2019-02-17T23:48:50.539Z,21.30
2019-02-17T23:53:53.733Z,21.47
2019-02-17T23:58:56.939Z,21.40
